sensor_id;sensor_type;location;lat;lon;timestamp;pressure;altitude;pressure_sealevel;temperature;humidity
17649;BME280;8943;51.110;-4.158;2023-07-22T00:01:49;101042.00;;;20.57;51.77
17649;BME280;8943;51.110;-4.158;2023-07-22T00:07:37;101044.88;;;20.55;51.78
17649;BME280;8943;51.110;-4.158;2023-07-22T00:21:42;101027.81;;;20.55;51.78
17649;BME280;8943;51.110;-4.158;2023-07-22T00:24:27;101024.59;;;20.60;51.85
17649;BME280;8943;51.110;-4.158;2023-07-22T00:27:11;101020.50;;;20.64;51.78
17649;BME280;8943;51.110;-4.158;2023-07-22T00:35:25;101016.94;;;20.71;51.95
17649;BME280;8943;51.110;-4.158;2023-07-22T00:38:22;101015.25;;;20.70;51.72
17649;BME280;8943;51.110;-4.158;2023-07-22T00:40:54;101020.16;;;20.75;51.29
17649;BME280;8943;51.110;-4.158;2023-07-22T00:43:36;101007.47;;;20.75;51.23
17649;BME280;8943;51.110;-4.158;2023-07-22T00:46:06;101016.63;;;20.74;51.26
17649;BME280;8943;51.110;-4.158;2023-07-22T00:48:51;101011.16;;;20.82;50.88
17649;BME280;8943;51.110;-4.158;2023-07-22T00:51:25;100999.31;;;20.83;50.43
17649;BME280;8943;51.110;-4.158;2023-07-22T01:00:00;100988.47;;;20.83;50.43
17649;BME280;8943;51.110;-4.158;2023-07-22T01:08:20;100968.31;;;20.86;49.83
17649;BME280;8943;51.110;-4.158;2023-07-22T01:11:22;100963.41;;;20.90;49.68
17649;BME280;8943;51.110;-4.158;2023-07-22T01:14:23;100959.69;;;20.91;49.69
17649;BME280;8943;51.110;-4.158;2023-07-22T01:19:53;100962.59;;;20.81;50.13
17649;BME280;8943;51.110;-4.158;2023-07-22T01:22:27;100959.38;;;20.86;49.63
17649;BME280;8943;51.110;-4.158;2023-07-22T01:28:23;100958.88;;;20.74;50.05
17649;BME280;8943;51.110;-4.158;2023-07-22T01:30:52;100947.56;;;20.70;50.08
17649;BME280;8943;51.110;-4.158;2023-07-22T01:33:51;100945.56;;;20.56;50.35
17649;BME280;8943;51.110;-4.158;2023-07-22T01:36:20;100945.91;;;20.53;50.36
17649;BME280;8943;51.110;-4.158;2023-07-22T01:39:17;100936.56;;;20.39;50.53
17649;BME280;8943;51.110;-4.158;2023-07-22T01:42:44;100933.56;;;20.26;50.88
17649;BME280;8943;51.110;-4.158;2023-07-22T01:51:53;100916.31;;;20.19;51.15
17649;BME280;8943;51.110;-4.158;2023-07-22T01:54:25;100920.88;;;20.18;51.04
17649;BME280;8943;51.110;-4.158;2023-07-22T01:56:55;100918.88;;;20.12;51.13
17649;BME280;8943;51.110;-4.158;2023-07-22T02:02:14;100912.44;;;20.05;51.68
17649;BME280;8943;51.110;-4.158;2023-07-22T02:04:43;100903.66;;;20.03;51.64
17649;BME280;8943;51.110;-4.158;2023-07-22T02:07:18;100905.16;;;20.05;51.60
17649;BME280;8943;51.110;-4.158;2023-07-22T02:10:08;100903.97;;;20.08;51.84
17649;BME280;8943;51.110;-4.158;2023-07-22T02:12:42;100893.16;;;20.08;51.56
17649;BME280;8943;51.110;-4.158;2023-07-22T02:15:27;100902.97;;;20.09;51.61
17649;BME280;8943;51.110;-4.158;2023-07-22T02:18:03;100898.25;;;20.11;51.80
17649;BME280;8943;51.110;-4.158;2023-07-22T02:20:59;100893.81;;;20.10;51.96
17649;BME280;8943;51.110;-4.158;2023-07-22T02:23:45;100889.44;;;20.09;51.95
17649;BME280;8943;51.110;-4.158;2023-07-22T02:26:43;100882.34;;;20.08;51.95
17649;BME280;8943;51.110;-4.158;2023-07-22T02:29:40;100875.91;;;20.09;52.01
17649;BME280;8943;51.110;-4.158;2023-07-22T02:32:21;100876.78;;;20.01;52.15
17649;BME280;8943;51.110;-4.158;2023-07-22T02:37:39;100863.91;;;20.03;52.36
17649;BME280;8943;51.110;-4.158;2023-07-22T02:40:18;100863.06;;;20.03;52.33
17649;BME280;8943;51.110;-4.158;2023-07-22T02:42:54;100865.44;;;20.06;52.28
17649;BME280;8943;51.110;-4.158;2023-07-22T02:45:29;100861.72;;;20.07;52.15
17649;BME280;8943;51.110;-4.158;2023-07-22T02:48:02;100856.31;;;20.07;52.41
17649;BME280;8943;51.110;-4.158;2023-07-22T02:50:41;100857.47;;;20.13;52.23
17649;BME280;8943;51.110;-4.158;2023-07-22T02:53:14;100854.25;;;20.09;52.57
17649;BME280;8943;51.110;-4.158;2023-07-22T02:59:16;100850.88;;;20.15;52.62
17649;BME280;8943;51.110;-4.158;2023-07-22T03:01:54;100848.53;;;20.12;52.69
17649;BME280;8943;51.110;-4.158;2023-07-22T03:04:42;100837.00;;;20.10;52.88
17649;BME280;8943;51.110;-4.158;2023-07-22T03:07:12;100838.72;;;20.11;52.92
17649;BME280;8943;51.110;-4.158;2023-07-22T03:09:41;100840.59;;;20.11;52.80
17649;BME280;8943;51.110;-4.158;2023-07-22T03:12:14;100831.59;;;20.10;52.88
17649;BME280;8943;51.110;-4.158;2023-07-22T03:14:50;100823.16;;;20.13;52.93
17649;BME280;8943;51.110;-4.158;2023-07-22T03:17:20;100826.69;;;20.14;52.88
17649;BME280;8943;51.110;-4.158;2023-07-22T03:20:05;100820.13;;;20.08;52.93
17649;BME280;8943;51.110;-4.158;2023-07-22T03:22:51;100828.06;;;20.10;53.32
17649;BME280;8943;51.110;-4.158;2023-07-22T03:25:26;100822.00;;;20.08;53.07
17649;BME280;8943;51.110;-4.158;2023-07-22T03:27:58;100826.69;;;20.14;53.10
17649;BME280;8943;51.110;-4.158;2023-07-22T03:31:01;100826.72;;;20.05;53.10
17649;BME280;8943;51.110;-4.158;2023-07-22T03:33:36;100818.44;;;20.07;53.04
17649;BME280;8943;51.110;-4.158;2023-07-22T03:36:30;100824.19;;;20.04;53.55
17649;BME280;8943;51.110;-4.158;2023-07-22T03:42:59;100825.22;;;19.95;53.68
17649;BME280;8943;51.110;-4.158;2023-07-22T03:45:46;100827.75;;;19.88;53.63
17649;BME280;8943;51.110;-4.158;2023-07-22T03:48:43;100812.56;;;19.87;53.50
17649;BME280;8943;51.110;-4.158;2023-07-22T03:51:30;100814.56;;;19.85;53.84
17649;BME280;8943;51.110;-4.158;2023-07-22T03:54:14;100818.28;;;19.84;53.41
17649;BME280;8943;51.110;-4.158;2023-07-22T03:57:05;100812.22;;;19.82;53.70
17649;BME280;8943;51.110;-4.158;2023-07-22T03:59:47;100802.94;;;19.76;53.85
17649;BME280;8943;51.110;-4.158;2023-07-22T04:02:25;100803.28;;;19.73;53.91
17649;BME280;8943;51.110;-4.158;2023-07-22T04:11:59;100790.78;;;19.72;54.09
17649;BME280;8943;51.110;-4.158;2023-07-22T04:14:50;100785.19;;;19.74;54.05
17649;BME280;8943;51.110;-4.158;2023-07-22T04:17:46;100775.53;;;19.71;53.99
17649;BME280;8943;51.110;-4.158;2023-07-22T04:20:39;100775.06;;;19.68;54.08
17649;BME280;8943;51.110;-4.158;2023-07-22T04:26:28;100769.16;;;19.64;54.33
17649;BME280;8943;51.110;-4.158;2023-07-22T04:28:59;100768.81;;;19.67;54.42
17649;BME280;8943;51.110;-4.158;2023-07-22T04:31:51;100762.56;;;19.67;54.61
17649;BME280;8943;51.110;-4.158;2023-07-22T04:34:46;100761.69;;;19.66;54.35
17649;BME280;8943;51.110;-4.158;2023-07-22T04:37:30;100761.03;;;19.64;54.58
17649;BME280;8943;51.110;-4.158;2023-07-22T04:43:23;100756.97;;;19.60;54.94
17649;BME280;8943;51.110;-4.158;2023-07-22T04:46:23;100754.28;;;19.60;54.62
17649;BME280;8943;51.110;-4.158;2023-07-22T04:53:39;100744.78;;;19.56;54.85
17649;BME280;8943;51.110;-4.158;2023-07-22T05:13:56;100724.88;;;19.57;55.20
17649;BME280;8943;51.110;-4.158;2023-07-22T05:46:58;100700.56;;;19.65;54.72
17649;BME280;8943;51.110;-4.158;2023-07-22T05:50:07;100693.97;;;19.68;54.82
17649;BME280;8943;51.110;-4.158;2023-07-22T05:55:23;100685.88;;;19.68;54.79
17649;BME280;8943;51.110;-4.158;2023-07-22T05:57:56;100686.53;;;19.70;54.78
17649;BME280;8943;51.110;-4.158;2023-07-22T06:12:17;100667.91;;;19.75;54.87
17649;BME280;8943;51.110;-4.158;2023-07-22T06:15:18;100667.41;;;19.79;54.65
17649;BME280;8943;51.110;-4.158;2023-07-22T06:17:54;100659.97;;;19.82;54.64
17649;BME280;8943;51.110;-4.158;2023-07-22T06:20:23;100668.91;;;19.82;54.94
17649;BME280;8943;51.110;-4.158;2023-07-22T06:22:51;100663.00;;;19.78;55.13
17649;BME280;8943;51.110;-4.158;2023-07-22T06:25:19;100661.66;;;19.83;54.97
17649;BME280;8943;51.110;-4.158;2023-07-22T06:27:50;100663.66;;;19.80;55.06
17649;BME280;8943;51.110;-4.158;2023-07-22T06:30:21;100659.28;;;19.79;55.43
17649;BME280;8943;51.110;-4.158;2023-07-22T06:32:49;100660.50;;;19.77;55.20
17649;BME280;8943;51.110;-4.158;2023-07-22T06:35:17;100656.78;;;19.78;55.17
17649;BME280;8943;51.110;-4.158;2023-07-22T06:37:45;100654.72;;;19.80;55.38
17649;BME280;8943;51.110;-4.158;2023-07-22T06:40:13;100650.84;;;19.74;55.65
17649;BME280;8943;51.110;-4.158;2023-07-22T06:42:41;100654.25;;;19.76;55.71
17649;BME280;8943;51.110;-4.158;2023-07-22T06:45:11;100654.91;;;19.70;55.75
17649;BME280;8943;51.110;-4.158;2023-07-22T06:47:39;100642.94;;;19.73;55.76
17649;BME280;8943;51.110;-4.158;2023-07-22T06:50:08;100641.56;;;19.77;55.63
17649;BME280;8943;51.110;-4.158;2023-07-22T06:52:37;100635.66;;;19.73;55.63
17649;BME280;8943;51.110;-4.158;2023-07-22T06:55:05;100639.38;;;19.72;55.92
17649;BME280;8943;51.110;-4.158;2023-07-22T06:57:33;100636.69;;;19.72;56.10
17649;BME280;8943;51.110;-4.158;2023-07-22T07:00:02;100637.00;;;19.77;56.02
17649;BME280;8943;51.110;-4.158;2023-07-22T07:02:33;100633.28;;;19.78;56.00
17649;BME280;8943;51.110;-4.158;2023-07-22T07:05:02;100626.34;;;19.76;55.92
17649;BME280;8943;51.110;-4.158;2023-07-22T07:07:30;100625.81;;;19.80;56.10
17649;BME280;8943;51.110;-4.158;2023-07-22T07:09:59;100621.63;;;19.78;56.40
17649;BME280;8943;51.110;-4.158;2023-07-22T07:12:27;100617.56;;;19.82;56.36
17649;BME280;8943;51.110;-4.158;2023-07-22T07:14:55;100623.13;;;19.80;56.01
17649;BME280;8943;51.110;-4.158;2023-07-22T07:17:24;100618.06;;;19.77;56.17
17649;BME280;8943;51.110;-4.158;2023-07-22T07:19:53;100619.94;;;19.77;56.19
17649;BME280;8943;51.110;-4.158;2023-07-22T07:22:21;100614.38;;;19.70;56.40
17649;BME280;8943;51.110;-4.158;2023-07-22T07:24:50;100606.44;;;19.69;56.47
17649;BME280;8943;51.110;-4.158;2023-07-22T07:27:18;100609.00;;;19.62;56.38
17649;BME280;8943;51.110;-4.158;2023-07-22T07:29:46;100610.00;;;19.61;56.57
17649;BME280;8943;51.110;-4.158;2023-07-22T07:32:20;100606.94;;;19.56;56.84
17649;BME280;8943;51.110;-4.158;2023-07-22T07:34:50;100599.53;;;19.50;57.20
17649;BME280;8943;51.110;-4.158;2023-07-22T07:37:19;100592.09;;;19.52;57.13
17649;BME280;8943;51.110;-4.158;2023-07-22T07:39:48;100598.88;;;19.48;57.49
17649;BME280;8943;51.110;-4.158;2023-07-22T07:42:16;100595.81;;;19.51;57.63
17649;BME280;8943;51.110;-4.158;2023-07-22T07:44:45;100609.00;;;19.54;57.62
17649;BME280;8943;51.110;-4.158;2023-07-22T07:47:13;100592.97;;;19.52;57.61
17649;BME280;8943;51.110;-4.158;2023-07-22T07:49:42;100594.28;;;19.56;57.92
17649;BME280;8943;51.110;-4.158;2023-07-22T07:52:11;100594.47;;;19.63;57.79
17649;BME280;8943;51.110;-4.158;2023-07-22T07:54:59;100592.78;;;19.62;57.86
17649;BME280;8943;51.110;-4.158;2023-07-22T07:57:28;100583.28;;;19.66;57.93
17649;BME280;8943;51.110;-4.158;2023-07-22T07:59:56;100585.00;;;19.67;57.62
17649;BME280;8943;51.110;-4.158;2023-07-22T08:02:25;100573.00;;;19.62;58.11
17649;BME280;8943;51.110;-4.158;2023-07-22T08:04:55;100574.72;;;19.63;58.03
17649;BME280;8943;51.110;-4.158;2023-07-22T08:07:26;100573.69;;;19.64;58.17
17649;BME280;8943;51.110;-4.158;2023-07-22T08:10:02;100565.75;;;19.62;57.98
17649;BME280;8943;51.110;-4.158;2023-07-22T08:12:31;100558.84;;;19.60;58.17
17649;BME280;8943;51.110;-4.158;2023-07-22T08:15:01;100561.00;;;19.64;58.44
17649;BME280;8943;51.110;-4.158;2023-07-22T08:17:30;100558.13;;;19.66;58.39
17649;BME280;8943;51.110;-4.158;2023-07-22T08:19:59;100552.72;;;19.66;58.53
17649;BME280;8943;51.110;-4.158;2023-07-22T08:22:28;100550.84;;;19.66;58.53
17649;BME280;8943;51.110;-4.158;2023-07-22T08:24:56;100541.56;;;19.69;58.69
17649;BME280;8943;51.110;-4.158;2023-07-22T08:27:27;100542.41;;;19.69;58.68
17649;BME280;8943;51.110;-4.158;2023-07-22T08:29:55;100539.06;;;19.67;58.89
17649;BME280;8943;51.110;-4.158;2023-07-22T08:32:23;100536.81;;;19.71;58.92
17649;BME280;8943;51.110;-4.158;2023-07-22T08:34:57;100534.28;;;19.69;58.74
17649;BME280;8943;51.110;-4.158;2023-07-22T08:37:30;100529.53;;;19.71;58.69
17649;BME280;8943;51.110;-4.158;2023-07-22T08:40:02;100523.81;;;19.66;58.95
17649;BME280;8943;51.110;-4.158;2023-07-22T08:42:35;100517.78;;;19.64;58.84
17649;BME280;8943;51.110;-4.158;2023-07-22T08:45:06;100508.81;;;19.64;59.06
17649;BME280;8943;51.110;-4.158;2023-07-22T08:47:41;100518.44;;;19.58;59.21
17649;BME280;8943;51.110;-4.158;2023-07-22T08:50:16;100520.81;;;19.61;59.01
17649;BME280;8943;51.110;-4.158;2023-07-22T08:52:51;100502.06;;;19.60;59.36
17649;BME280;8943;51.110;-4.158;2023-07-22T08:55:23;100508.31;;;19.60;59.23
17649;BME280;8943;51.110;-4.158;2023-07-22T08:57:56;100496.81;;;19.58;59.38
17649;BME280;8943;51.110;-4.158;2023-07-22T09:00:34;100502.56;;;19.63;59.40
17649;BME280;8943;51.110;-4.158;2023-07-22T09:03:04;100493.78;;;19.61;59.48
17649;BME280;8943;51.110;-4.158;2023-07-22T09:05:36;100495.13;;;19.65;59.55
17649;BME280;8943;51.110;-4.158;2023-07-22T09:08:10;100482.94;;;19.69;59.57
17649;BME280;8943;51.110;-4.158;2023-07-22T09:10:41;100478.38;;;19.70;59.63
17649;BME280;8943;51.110;-4.158;2023-07-22T09:13:13;100477.00;;;19.74;59.80
17649;BME280;8943;51.110;-4.158;2023-07-22T09:15:57;100475.81;;;19.76;59.67
17649;BME280;8943;51.110;-4.158;2023-07-22T09:18:32;100465.66;;;19.78;59.66
17649;BME280;8943;51.110;-4.158;2023-07-22T09:21:03;100469.84;;;19.81;59.52
17649;BME280;8943;51.110;-4.158;2023-07-22T09:23:37;100464.94;;;19.85;59.79
17649;BME280;8943;51.110;-4.158;2023-07-22T09:26:11;100463.56;;;19.89;59.82
17649;BME280;8943;51.110;-4.158;2023-07-22T09:28:53;100458.16;;;19.89;59.88
17649;BME280;8943;51.110;-4.158;2023-07-22T09:31:24;100447.81;;;19.92;60.02
17649;BME280;8943;51.110;-4.158;2023-07-22T09:34:09;100453.22;;;19.92;60.22
17649;BME280;8943;51.110;-4.158;2023-07-22T09:36:50;100448.28;;;19.96;60.14
17649;BME280;8943;51.110;-4.158;2023-07-22T09:42:03;100451.75;;;20.04;60.52
17649;BME280;8943;51.110;-4.158;2023-07-22T09:44:43;100438.53;;;20.10;60.31
17649;BME280;8943;51.110;-4.158;2023-07-22T09:47:15;100436.97;;;20.15;60.25
17649;BME280;8943;51.110;-4.158;2023-07-22T09:49:46;100436.25;;;20.21;60.18
17649;BME280;8943;51.110;-4.158;2023-07-22T09:52:32;100434.69;;;20.27;60.07
17649;BME280;8943;51.110;-4.158;2023-07-22T09:55:18;100430.13;;;20.27;60.11
17649;BME280;8943;51.110;-4.158;2023-07-22T09:58:02;100422.47;;;20.31;60.31
17649;BME280;8943;51.110;-4.158;2023-07-22T10:00:36;100430.69;;;20.38;60.18
17649;BME280;8943;51.110;-4.158;2023-07-22T10:03:10;100429.84;;;20.37;60.38
17649;BME280;8943;51.110;-4.158;2023-07-22T10:06:11;100425.22;;;20.46;60.40
17649;BME280;8943;51.110;-4.158;2023-07-22T10:08:43;100423.84;;;20.50;60.80
17649;BME280;8943;51.110;-4.158;2023-07-22T10:11:17;100419.38;;;20.57;60.47
17649;BME280;8943;51.110;-4.158;2023-07-22T10:13:49;100415.63;;;20.58;60.43
17649;BME280;8943;51.110;-4.158;2023-07-22T10:16:24;100418.44;;;20.65;60.42
17649;BME280;8943;51.110;-4.158;2023-07-22T10:19:03;100417.50;;;20.72;60.17
17649;BME280;8943;51.110;-4.158;2023-07-22T10:21:42;100415.47;;;20.74;60.00
17649;BME280;8943;51.110;-4.158;2023-07-22T10:24:24;100410.69;;;20.76;60.30
17649;BME280;8943;51.110;-4.158;2023-07-22T10:27:13;100414.31;;;20.83;60.29
17649;BME280;8943;51.110;-4.158;2023-07-22T10:30:00;100412.19;;;20.94;60.24
17649;BME280;8943;51.110;-4.158;2023-07-22T10:33:02;100414.03;;;20.93;60.32
17649;BME280;8943;51.110;-4.158;2023-07-22T10:35:41;100405.34;;;20.98;60.23
17649;BME280;8943;51.110;-4.158;2023-07-22T10:38:14;100401.63;;;20.99;60.22
17649;BME280;8943;51.110;-4.158;2023-07-22T10:40:48;100406.28;;;21.05;60.22
17649;BME280;8943;51.110;-4.158;2023-07-22T10:43:23;100402.56;;;21.06;60.16
17649;BME280;8943;51.110;-4.158;2023-07-22T10:46:06;100395.47;;;21.05;60.44
17649;BME280;8943;51.110;-4.158;2023-07-22T10:52:50;100392.06;;;21.18;60.73
17649;BME280;8943;51.110;-4.158;2023-07-22T10:56:10;100387.00;;;21.29;60.63
17649;BME280;8943;51.110;-4.158;2023-07-22T10:59:11;100394.13;;;21.30;60.68
17649;BME280;8943;51.110;-4.158;2023-07-22T11:01:58;100378.81;;;21.38;60.53
17649;BME280;8943;51.110;-4.158;2023-07-22T11:04:52;100380.84;;;21.36;60.67
17649;BME280;8943;51.110;-4.158;2023-07-22T11:07:34;100370.00;;;21.36;60.73
17649;BME280;8943;51.110;-4.158;2023-07-22T11:10:52;100381.50;;;21.38;60.71
17649;BME280;8943;51.110;-4.158;2023-07-22T11:13:30;100359.44;;;21.41;60.96
17649;BME280;8943;51.110;-4.158;2023-07-22T11:18:46;100356.13;;;21.45;61.08
17649;BME280;8943;51.110;-4.158;2023-07-22T11:21:18;100355.31;;;21.45;61.13
17649;BME280;8943;51.110;-4.158;2023-07-22T11:24:02;100359.31;;;21.49;61.27
17649;BME280;8943;51.110;-4.158;2023-07-22T11:26:33;100358.91;;;21.52;61.30
17649;BME280;8943;51.110;-4.158;2023-07-22T11:29:05;100341.44;;;21.54;61.46
17649;BME280;8943;51.110;-4.158;2023-07-22T11:31:52;100342.25;;;21.55;61.39
17649;BME280;8943;51.110;-4.158;2023-07-22T11:36:58;100339.44;;;21.63;61.40
17649;BME280;8943;51.110;-4.158;2023-07-22T11:39:46;100342.16;;;21.63;61.42
17649;BME280;8943;51.110;-4.158;2023-07-22T11:42:34;100329.44;;;21.64;61.38
17649;BME280;8943;51.110;-4.158;2023-07-22T11:45:06;100323.22;;;21.70;61.59
17649;BME280;8943;51.110;-4.158;2023-07-22T11:47:48;100319.66;;;21.69;61.67
17649;BME280;8943;51.110;-4.158;2023-07-22T11:50:16;100310.50;;;21.70;61.47
17649;BME280;8943;51.110;-4.158;2023-07-22T11:52:50;100310.75;;;21.75;61.51
17649;BME280;8943;51.110;-4.158;2023-07-22T11:55:38;100317.00;;;21.76;61.79
17649;BME280;8943;51.110;-4.158;2023-07-22T11:58:29;100307.06;;;21.83;61.82
17649;BME280;8943;51.110;-4.158;2023-07-22T12:01:02;100302.72;;;21.89;61.51
17649;BME280;8943;51.110;-4.158;2023-07-22T12:03:32;100309.81;;;21.90;61.67
17649;BME280;8943;51.110;-4.158;2023-07-22T12:06:06;100295.88;;;21.93;61.73
17649;BME280;8943;51.110;-4.158;2023-07-22T12:08:52;100295.28;;;21.97;61.54
17649;BME280;8943;51.110;-4.158;2023-07-22T12:11:32;100287.16;;;21.97;61.35
17649;BME280;8943;51.110;-4.158;2023-07-22T12:14:13;100291.31;;;22.00;61.28
17649;BME280;8943;51.110;-4.158;2023-07-22T12:16:47;100298.84;;;21.98;61.21
17649;BME280;8943;51.110;-4.158;2023-07-22T12:19:28;100290.69;;;21.98;61.36
17649;BME280;8943;51.110;-4.158;2023-07-22T12:21:57;100287.56;;;22.01;61.30
17649;BME280;8943;51.110;-4.158;2023-07-22T12:24:27;100281.56;;;22.05;61.32
17649;BME280;8943;51.110;-4.158;2023-07-22T12:26:56;100288.44;;;22.01;61.65
17649;BME280;8943;51.110;-4.158;2023-07-22T12:29:32;100271.97;;;22.09;61.36
17649;BME280;8943;51.110;-4.158;2023-07-22T12:32:02;100281.78;;;22.10;61.42
17649;BME280;8943;51.110;-4.158;2023-07-22T12:34:34;100279.56;;;22.14;60.99
17649;BME280;8943;51.110;-4.158;2023-07-22T12:37:17;100272.66;;;22.12;61.34
17649;BME280;8943;51.110;-4.158;2023-07-22T12:39:46;100273.03;;;22.08;61.77
17649;BME280;8943;51.110;-4.158;2023-07-22T12:42:17;100274.56;;;22.11;61.40
17649;BME280;8943;51.110;-4.158;2023-07-22T12:44:51;100267.25;;;22.12;61.35
17649;BME280;8943;51.110;-4.158;2023-07-22T12:47:20;100259.09;;;22.12;61.86
17649;BME280;8943;51.110;-4.158;2023-07-22T12:49:50;100267.03;;;22.13;61.76
17649;BME280;8943;51.110;-4.158;2023-07-22T12:52:19;100257.91;;;22.21;61.28
17649;BME280;8943;51.110;-4.158;2023-07-22T12:54:49;100264.34;;;22.20;61.30
17649;BME280;8943;51.110;-4.158;2023-07-22T12:57:20;100253.81;;;22.10;61.43
17649;BME280;8943;51.110;-4.158;2023-07-22T12:59:56;100256.53;;;22.10;61.79
17649;BME280;8943;51.110;-4.158;2023-07-22T13:02:24;100245.06;;;22.08;61.71
17649;BME280;8943;51.110;-4.158;2023-07-22T13:04:53;100251.31;;;22.08;61.69
17649;BME280;8943;51.110;-4.158;2023-07-22T13:07:21;100253.69;;;22.12;61.52
17649;BME280;8943;51.110;-4.158;2023-07-22T13:09:50;100238.59;;;22.09;61.79
17649;BME280;8943;51.110;-4.158;2023-07-22T13:12:20;100225.84;;;22.09;61.60
17649;BME280;8943;51.110;-4.158;2023-07-22T13:14:50;100229.00;;;22.06;61.51
17649;BME280;8943;51.110;-4.158;2023-07-22T13:17:36;100229.63;;;22.08;61.51
17649;BME280;8943;51.110;-4.158;2023-07-22T13:20:06;100226.69;;;22.10;61.48
17649;BME280;8943;51.110;-4.158;2023-07-22T13:22:46;100237.19;;;22.13;61.87
17649;BME280;8943;51.110;-4.158;2023-07-22T13:25:22;100223.97;;;22.10;61.65
17649;BME280;8943;51.110;-4.158;2023-07-22T13:27:51;100223.22;;;22.16;61.83
17649;BME280;8943;51.110;-4.158;2023-07-22T13:30:20;100218.44;;;22.18;61.84
17649;BME280;8943;51.110;-4.158;2023-07-22T13:32:50;100210.28;;;22.18;61.62
17649;BME280;8943;51.110;-4.158;2023-07-22T13:35:20;100222.41;;;22.16;61.97
17649;BME280;8943;51.110;-4.158;2023-07-22T13:37:49;100213.41;;;22.15;61.64
17649;BME280;8943;51.110;-4.158;2023-07-22T13:40:18;100210.28;;;22.18;61.49
17649;BME280;8943;51.110;-4.158;2023-07-22T13:42:46;100215.00;;;22.09;61.53
17649;BME280;8943;51.110;-4.158;2023-07-22T13:45:16;100204.97;;;22.03;61.92
17649;BME280;8943;51.110;-4.158;2023-07-22T13:47:47;100217.31;;;22.06;61.78
17649;BME280;8943;51.110;-4.158;2023-07-22T13:50:17;100204.97;;;22.10;61.67
17649;BME280;8943;51.110;-4.158;2023-07-22T13:52:46;100215.84;;;22.10;61.90
17649;BME280;8943;51.110;-4.158;2023-07-22T13:55:16;100210.84;;;22.07;61.85
17649;BME280;8943;51.110;-4.158;2023-07-22T13:57:45;100205.41;;;22.07;62.00
17649;BME280;8943;51.110;-4.158;2023-07-22T14:00:15;100206.72;;;22.11;61.82
17649;BME280;8943;51.110;-4.158;2023-07-22T14:02:43;100195.88;;;22.11;61.78
17649;BME280;8943;51.110;-4.158;2023-07-22T14:05:13;100190.44;;;22.11;61.93
17649;BME280;8943;51.110;-4.158;2023-07-22T14:07:43;100198.09;;;22.07;61.75
17649;BME280;8943;51.110;-4.158;2023-07-22T14:10:16;100195.19;;;22.09;61.88
17649;BME280;8943;51.110;-4.158;2023-07-22T14:12:45;100184.94;;;22.04;61.82
17649;BME280;8943;51.110;-4.158;2023-07-22T14:15:13;100206.19;;;22.01;62.13
17649;BME280;8943;51.110;-4.158;2023-07-22T14:17:43;100192.63;;;22.01;62.09
17649;BME280;8943;51.110;-4.158;2023-07-22T14:20:13;100203.69;;;21.99;62.09
17649;BME280;8943;51.110;-4.158;2023-07-22T14:22:43;100180.69;;;21.95;62.32
17649;BME280;8943;51.110;-4.158;2023-07-22T14:25:12;100179.88;;;21.95;62.10
17649;BME280;8943;51.110;-4.158;2023-07-22T14:27:50;100170.66;;;21.89;62.57
17649;BME280;8943;51.110;-4.158;2023-07-22T14:30:19;100184.88;;;21.91;62.78
17649;BME280;8943;51.110;-4.158;2023-07-22T14:33:00;100169.22;;;21.93;62.36
17649;BME280;8943;51.110;-4.158;2023-07-22T14:35:32;100171.97;;;22.00;62.26
17649;BME280;8943;51.110;-4.158;2023-07-22T14:38:03;100179.72;;;22.03;62.15
17649;BME280;8943;51.110;-4.158;2023-07-22T14:40:37;100169.63;;;21.90;62.51
17649;BME280;8943;51.110;-4.158;2023-07-22T14:43:14;100173.63;;;22.01;62.54
17649;BME280;8943;51.110;-4.158;2023-07-22T14:46:21;100164.88;;;21.99;62.19
17649;BME280;8943;51.110;-4.158;2023-07-22T14:48:50;100166.53;;;22.00;62.09
17649;BME280;8943;51.110;-4.158;2023-07-22T14:51:18;100165.69;;;21.99;62.19
17649;BME280;8943;51.110;-4.158;2023-07-22T14:54:03;100164.88;;;21.99;62.29
17649;BME280;8943;51.110;-4.158;2023-07-22T14:56:33;100157.53;;;21.93;62.29
17649;BME280;8943;51.110;-4.158;2023-07-22T14:59:16;100162.16;;;21.99;62.34
17649;BME280;8943;51.110;-4.158;2023-07-22T15:01:55;100159.06;;;22.02;62.25
17649;BME280;8943;51.110;-4.158;2023-07-22T15:04:41;100150.69;;;21.97;62.43
17649;BME280;8943;51.110;-4.158;2023-07-22T15:07:17;100148.00;;;22.03;62.17
17649;BME280;8943;51.110;-4.158;2023-07-22T15:10:12;100146.94;;;21.98;62.53
17649;BME280;8943;51.110;-4.158;2023-07-22T15:12:55;100141.50;;;21.98;62.44
17649;BME280;8943;51.110;-4.158;2023-07-22T15:15:37;100146.09;;;21.97;62.30
17649;BME280;8943;51.110;-4.158;2023-07-22T15:18:26;100146.94;;;21.98;62.37
17649;BME280;8943;51.110;-4.158;2023-07-22T15:20:55;100124.56;;;21.96;62.55
17649;BME280;8943;51.110;-4.158;2023-07-22T15:23:39;100121.03;;;21.95;62.21
17649;BME280;8943;51.110;-4.158;2023-07-22T15:26:17;100128.94;;;21.90;62.35
17649;BME280;8943;51.110;-4.158;2023-07-22T15:28:55;100131.22;;;21.87;62.45
17649;BME280;8943;51.110;-4.158;2023-07-22T15:32:05;100121.59;;;21.84;62.45
17649;BME280;8943;51.110;-4.158;2023-07-22T15:34:42;100119.72;;;21.84;62.28
17649;BME280;8943;51.110;-4.158;2023-07-22T15:37:38;100113.03;;;21.80;62.32
17649;BME280;8943;51.110;-4.158;2023-07-22T15:40:37;100103.88;;;21.81;62.51
17649;BME280;8943;51.110;-4.158;2023-07-22T15:43:14;100109.28;;;21.81;62.29
17649;BME280;8943;51.110;-4.158;2023-07-22T15:45:46;100105.94;;;21.79;62.28
17649;BME280;8943;51.110;-4.158;2023-07-22T15:48:15;100103.59;;;21.76;62.28
17649;BME280;8943;51.110;-4.158;2023-07-22T15:50:45;100090.47;;;21.73;62.19
17649;BME280;8943;51.110;-4.158;2023-07-22T15:53:13;100100.44;;;21.66;62.74
17649;BME280;8943;51.110;-4.158;2023-07-22T15:55:46;100091.06;;;21.69;62.46
17649;BME280;8943;51.110;-4.158;2023-07-22T15:58:21;100091.69;;;21.71;62.60
17649;BME280;8943;51.110;-4.158;2023-07-22T16:00:56;100080.84;;;21.71;62.55
17649;BME280;8943;51.110;-4.158;2023-07-22T16:03:36;100086.25;;;21.64;62.50
17649;BME280;8943;51.110;-4.158;2023-07-22T16:09:22;100065.59;;;21.63;62.53
17649;BME280;8943;51.110;-4.158;2023-07-22T16:21:01;100042.78;;;21.51;62.89
17649;BME280;8943;51.110;-4.158;2023-07-22T16:23:33;100050.94;;;21.51;62.82